»·PEaware :: N32196 KRDD-KACV

N32196 :: KRDD-KACV

FLIGHT INFORMATION

Flight Status: Arrived
Operator: Privately registered:
United States
More flights under this callsign
Pilot: Gary H. (18965)
Aircraft: PIPER PA-28R-201 ARROW
(P28R)
More flights by this aircraft type
Origin: KRDD Redding Mun
United States
Destination: KACV Arcata
United States
More flights between these airports :: More routes between these airports
Route: +YAGER
File this flight plan on PilotEdge
Remarks:
Altitude:
(Current/Filed)
10,000ft
Speed:
(Current/Filed)
120kts
Departed: 16-Aug-20 04:26 PM
Arrived: 16-Aug-20 05:25 PM
Distance/Time
Traveled:
87nm/0:59
Distance/Time
To Go:
Arrived

Flight Plot

Page will automatically refresh every two minutes.

Flight plan parsing failed; only flown route is shown


Map Options




Map Legend


Flown Route
Filed Route
Departure Airport
Arrival Airport
Navaid (VOR, NDB)
Fix

Horizontal Profiles

Position Reports

Time Latitude Longitude Heading Altitude Ground
Speed
16-Aug-20 16:11 40.508633 -122.298003 179 495ft 0kts
16-Aug-20 16:12 40.508633 -122.298003 179 495ft 0kts
16-Aug-20 16:13 40.508633 -122.298003 179 495ft 0kts
16-Aug-20 16:14 40.508633 -122.298003 179 495ft 0kts
16-Aug-20 16:15 40.508633 -122.298003 179 495ft 0kts
16-Aug-20 16:16 40.508633 -122.298003 179 495ft 0kts
16-Aug-20 16:17 40.508486 -122.298001 179 495ft 5kts
16-Aug-20 16:18 40.508532 -122.296995 44 495ft 13kts
16-Aug-20 16:19 40.512862 -122.296299 359 498ft 17kts
16-Aug-20 16:20 40.517758 -122.296283 0 501ft 18kts
16-Aug-20 16:21 40.520324 -122.296094 65 502ft 0kts
16-Aug-20 16:22 40.520324 -122.296094 65 502ft 0kts
16-Aug-20 16:23 40.520324 -122.296094 65 502ft 0kts
16-Aug-20 16:24 40.520324 -122.296094 65 502ft 0kts
16-Aug-20 16:26 40.515629 -122.294810 181 542ft 78kts
16-Aug-20 16:27 40.491840 -122.298377 227 1232ft 89kts
16-Aug-20 16:28 40.490867 -122.329180 278 2010ft 95kts
16-Aug-20 16:29 40.491977 -122.366051 274 3011ft 102kts
16-Aug-20 16:30 40.492954 -122.402935 274 3892ft 100kts
16-Aug-20 16:31 40.494700 -122.438977 276 4716ft 97kts
16-Aug-20 16:32 40.496404 -122.473805 275 5523ft 94kts
16-Aug-20 16:33 40.498245 -122.507995 275 6250ft 93kts
16-Aug-20 16:34 40.500372 -122.541816 275 6924ft 92kts
16-Aug-20 16:35 40.502871 -122.574812 275 7564ft 91kts
16-Aug-20 16:36 40.504878 -122.607973 273 8114ft 92kts
16-Aug-20 16:37 40.506921 -122.641279 271 8600ft 92kts
16-Aug-20 16:38 40.508700 -122.674940 270 9050ft 92kts
16-Aug-20 16:39 40.510949 -122.708540 270 9566ft 92kts
16-Aug-20 16:40 40.513074 -122.742689 268 10021ft 100kts
16-Aug-20 16:41 40.515111 -122.781375 268 10067ft 110kts
16-Aug-20 16:41 40.516761 -122.814876 268 10075ft 112kts
16-Aug-20 16:43 40.518908 -122.862121 268 10080ft 109kts
16-Aug-20 16:44 40.520650 -122.903137 268 9990ft 113kts
16-Aug-20 16:44 40.522292 -122.937113 268 10040ft 110kts
16-Aug-20 16:46 40.525006 -122.985100 266 10025ft 111kts
16-Aug-20 16:47 40.526549 -123.026252 265 10007ft 116kts
16-Aug-20 16:47 40.527974 -123.061291 265 9988ft 115kts
16-Aug-20 16:48 40.530056 -123.103105 265 10046ft 114kts
16-Aug-20 16:49 40.532482 -123.145317 265 10062ft 117kts
16-Aug-20 16:50 40.535020 -123.188125 265 10061ft 118kts
16-Aug-20 16:51 40.537296 -123.231048 263 10085ft 117kts
16-Aug-20 16:52 40.538783 -123.273884 263 10130ft 117kts
16-Aug-20 16:53 40.540408 -123.316668 263 10177ft 117kts
16-Aug-20 16:54 40.541622 -123.348300 263 10116ft 122kts
16-Aug-20 16:55 40.541622 -123.348300 263 10116ft 122kts
16-Aug-20 16:56 40.542535 -123.376425 262 10071ft 120kts
16-Aug-20 16:57 40.544073 -123.419690 262 10044ft 121kts
16-Aug-20 16:58 40.544924 -123.464920 263 9597ft 123kts
16-Aug-20 16:59 40.545181 -123.510291 261 9114ft 123kts
16-Aug-20 17:00 40.546599 -123.555656 265 8671ft 123kts
16-Aug-20 17:01 40.547865 -123.600802 265 8259ft 122kts
16-Aug-20 17:02 40.549277 -123.645005 267 8020ft 117kts
16-Aug-20 17:03 40.550719 -123.687714 265 8011ft 117kts
16-Aug-20 17:04 40.551828 -123.730693 265 7597ft 119kts
16-Aug-20 17:05 40.553293 -123.774568 269 7068ft 121kts
16-Aug-20 17:06 40.556300 -123.816023 282 6957ft 114kts
16-Aug-20 17:07 40.584693 -123.841373 323 6682ft 130kts
16-Aug-20 17:08 40.616117 -123.864173 323 6218ft 127kts
16-Aug-20 17:09 40.646942 -123.886668 324 5749ft 127kts
16-Aug-20 17:10 40.676356 -123.906639 324 5707ft 116kts
16-Aug-20 17:11 40.704646 -123.927139 318 5481ft 107kts
16-Aug-20 17:12 40.727761 -123.943925 326 4952ft 89kts
16-Aug-20 17:13 40.750173 -123.956113 322 4599ft 82kts
16-Aug-20 17:14 40.770247 -123.967996 325 4538ft 78kts
16-Aug-20 17:15 40.790722 -123.981049 324 4241ft 87kts
16-Aug-20 17:16 40.812177 -123.995614 325 3777ft 86kts
16-Aug-20 17:17 40.833297 -124.010580 323 3318ft 85kts
16-Aug-20 17:18 40.854253 -124.025933 324 2850ft 85kts
16-Aug-20 17:19 40.875623 -124.040841 329 2363ft 83kts
16-Aug-20 17:20 40.897753 -124.054366 328 1828ft 88kts
16-Aug-20 17:21 40.919564 -124.069014 333 1336ft 88kts
16-Aug-20 17:22 40.941111 -124.083293 324 926ft 88kts
16-Aug-20 17:23 40.961361 -124.096910 330 483ft 77kts
16-Aug-20 17:24 40.976724 -124.107322 336 225ft 28kts
16-Aug-20 17:25 40.976720 -124.108427 195 225ft 0kts

Navigation Log

Ident Type
Flight plan parsing failed, navigation log unavailable